createdAt,value
2022-12-25T00:01:19.045Z,5.50
2022-12-25T00:04:05.710Z,5.40
2022-12-25T00:06:52.275Z,5.40
2022-12-25T00:09:38.831Z,5.40
2022-12-25T00:12:25.354Z,5.30
2022-12-25T00:15:11.835Z,5.40
2022-12-25T00:17:58.356Z,5.30
2022-12-25T00:20:44.891Z,5.30
2022-12-25T00:23:31.457Z,5.30
2022-12-25T00:26:17.991Z,5.30
2022-12-25T00:29:04.541Z,5.20
2022-12-25T00:31:51.121Z,5.20
2022-12-25T00:34:37.689Z,5.20
2022-12-25T00:37:24.206Z,5.10
2022-12-25T00:40:10.765Z,5.10
2022-12-25T00:42:57.291Z,5.00
2022-12-25T00:45:43.863Z,5.00
2022-12-25T00:48:30.515Z,4.90
2022-12-25T00:51:17.057Z,4.90
2022-12-25T00:54:03.611Z,5.00
2022-12-25T00:56:50.135Z,5.00
2022-12-25T00:59:36.723Z,5.00
2022-12-25T01:02:23.293Z,5.00
2022-12-25T01:05:09.961Z,5.00
2022-12-25T01:07:56.478Z,5.00
2022-12-25T01:10:43.018Z,5.10
2022-12-25T01:13:29.526Z,5.00
2022-12-25T01:16:16.122Z,5.00
2022-12-25T01:19:02.689Z,5.00
2022-12-25T01:21:49.247Z,5.00
2022-12-25T01:24:35.775Z,5.00
2022-12-25T01:27:22.324Z,5.00
2022-12-25T01:30:08.872Z,5.00
2022-12-25T01:32:55.677Z,5.00
2022-12-25T01:35:42.197Z,4.90
2022-12-25T01:38:28.867Z,4.90
2022-12-25T01:41:15.396Z,4.80
2022-12-25T01:44:01.986Z,4.80
2022-12-25T01:46:48.507Z,4.80
2022-12-25T01:49:35.056Z,4.80
2022-12-25T01:52:24.107Z,4.80
2022-12-25T01:55:11.111Z,4.80
2022-12-25T01:57:57.629Z,4.80
2022-12-25T02:00:44.229Z,4.80
2022-12-25T02:03:30.809Z,4.70
2022-12-25T02:06:17.352Z,4.70
2022-12-25T02:09:03.894Z,4.70
2022-12-25T02:11:50.425Z,4.70
2022-12-25T02:14:37.017Z,4.70
2022-12-25T02:17:23.617Z,4.70
2022-12-25T02:20:10.233Z,4.70
2022-12-25T02:22:56.723Z,4.60
2022-12-25T02:25:44.235Z,4.60
2022-12-25T02:28:30.765Z,4.60
2022-12-25T02:31:17.415Z,4.50
2022-12-25T02:34:03.956Z,4.60
2022-12-25T02:36:50.505Z,4.60
2022-12-25T02:39:37.019Z,4.60
2022-12-25T02:42:23.586Z,4.60
2022-12-25T02:45:10.126Z,4.60
2022-12-25T02:47:56.680Z,4.70
2022-12-25T02:50:43.214Z,4.60
2022-12-25T02:53:29.743Z,4.70
2022-12-25T02:56:16.264Z,4.70
2022-12-25T02:59:02.800Z,4.70
2022-12-25T03:01:49.405Z,4.70
2022-12-25T03:04:36.002Z,4.70
2022-12-25T03:07:22.527Z,4.70
2022-12-25T03:10:09.167Z,4.80
2022-12-25T03:12:55.733Z,4.80
2022-12-25T03:15:42.290Z,4.80
2022-12-25T03:18:28.820Z,4.80
2022-12-25T03:21:15.376Z,4.80
2022-12-25T03:24:01.909Z,4.80
2022-12-25T03:26:48.482Z,4.80
2022-12-25T03:29:36.047Z,4.80
2022-12-25T03:32:22.584Z,4.70
2022-12-25T03:35:09.142Z,4.80
2022-12-25T03:37:55.682Z,4.80
2022-12-25T03:40:42.195Z,4.70
2022-12-25T03:43:28.737Z,4.70
2022-12-25T03:46:15.301Z,4.70
2022-12-25T03:49:01.865Z,4.60
2022-12-25T03:51:48.414Z,4.70
2022-12-25T03:54:34.961Z,4.60
2022-12-25T03:57:21.480Z,4.50
2022-12-25T04:00:08.166Z,4.40
2022-12-25T04:02:54.838Z,4.40
2022-12-25T04:05:41.421Z,4.40
2022-12-25T04:08:27.943Z,4.40
2022-12-25T04:11:14.458Z,4.50
2022-12-25T04:14:00.990Z,4.50
2022-12-25T04:16:47.535Z,4.50
2022-12-25T04:19:34.076Z,4.50
2022-12-25T04:22:20.606Z,4.50
2022-12-25T04:25:07.187Z,4.40
2022-12-25T04:27:53.717Z,4.40
2022-12-25T04:30:40.266Z,4.40
2022-12-25T04:33:26.760Z,4.40
2022-12-25T04:36:13.327Z,4.30
2022-12-25T04:38:59.862Z,4.30
2022-12-25T04:41:47.382Z,4.30
2022-12-25T04:44:33.906Z,4.30
2022-12-25T04:47:20.537Z,4.30
2022-12-25T04:50:07.084Z,4.30
2022-12-25T04:52:53.634Z,4.20
2022-12-25T04:55:40.160Z,4.30
2022-12-25T04:58:26.715Z,4.20
2022-12-25T05:01:13.315Z,4.20
2022-12-25T05:04:00.034Z,4.20
2022-12-25T05:06:46.633Z,4.20
2022-12-25T05:09:33.157Z,4.30
2022-12-25T05:12:19.695Z,4.20
2022-12-25T05:15:06.208Z,4.20
2022-12-25T05:17:52.787Z,4.20
2022-12-25T05:20:40.409Z,4.20
2022-12-25T05:23:27.123Z,4.20
2022-12-25T05:26:13.651Z,4.10
2022-12-25T05:29:00.189Z,4.10
2022-12-25T05:31:46.745Z,4.10
2022-12-25T05:34:33.382Z,4.10
2022-12-25T05:37:19.949Z,4.10
2022-12-25T05:40:06.488Z,4.00
2022-12-25T05:42:53.056Z,4.00
2022-12-25T05:45:39.583Z,4.10
2022-12-25T05:48:26.154Z,4.10
2022-12-25T05:51:12.700Z,4.10
2022-12-25T05:53:59.243Z,4.00
2022-12-25T05:56:45.766Z,3.90
2022-12-25T05:59:32.329Z,4.00
2022-12-25T06:02:18.881Z,4.00
2022-12-25T06:05:05.440Z,4.00
2022-12-25T06:07:51.971Z,4.00
2022-12-25T06:10:38.507Z,4.00
2022-12-25T06:13:25.145Z,4.00
2022-12-25T06:16:11.763Z,4.00
2022-12-25T06:18:58.336Z,4.00
2022-12-25T06:21:44.860Z,4.00
2022-12-25T06:24:31.418Z,3.90
2022-12-25T06:27:17.945Z,3.90
2022-12-25T06:30:04.511Z,3.80
2022-12-25T06:32:51.041Z,3.70
2022-12-25T06:35:37.604Z,3.70
2022-12-25T06:38:24.123Z,3.80
2022-12-25T06:41:10.718Z,3.80
2022-12-25T06:43:57.240Z,3.80
2022-12-25T06:46:43.772Z,3.80
2022-12-25T06:49:30.318Z,3.80
2022-12-25T06:52:16.882Z,3.70
2022-12-25T06:55:03.412Z,3.80
2022-12-25T06:57:49.997Z,3.80
2022-12-25T07:00:36.611Z,3.80
2022-12-25T07:03:23.287Z,3.80
2022-12-25T07:06:09.889Z,3.90
2022-12-25T07:08:56.700Z,3.90
2022-12-25T07:11:43.245Z,3.90
2022-12-25T07:14:29.817Z,3.90
2022-12-25T07:17:16.355Z,4.00
2022-12-25T07:20:03.547Z,4.00
2022-12-25T07:22:50.108Z,3.90
2022-12-25T07:25:37.582Z,4.00
2022-12-25T07:28:24.229Z,4.00
2022-12-25T07:31:10.786Z,4.10
2022-12-25T07:33:57.294Z,4.10
2022-12-25T07:36:43.887Z,4.10
2022-12-25T07:39:30.441Z,4.20
2022-12-25T07:42:21.836Z,4.20
2022-12-25T07:45:11.612Z,4.20
2022-12-25T07:48:04.498Z,4.20
2022-12-25T07:50:52.935Z,4.30
2022-12-25T07:53:39.657Z,4.30
2022-12-25T07:56:26.208Z,4.20
2022-12-25T07:59:13.766Z,4.20
2022-12-25T08:02:00.838Z,4.20
2022-12-25T08:04:47.565Z,4.20
2022-12-25T08:07:34.041Z,4.10
2022-12-25T08:10:20.599Z,4.20
2022-12-25T08:13:13.969Z,4.30
2022-12-25T08:16:01.058Z,4.40
2022-12-25T08:18:47.528Z,4.40
2022-12-25T08:21:34.067Z,4.50
2022-12-25T08:24:20.595Z,4.60
2022-12-25T08:27:07.139Z,4.80
2022-12-25T08:29:53.662Z,4.80
2022-12-25T08:32:41.317Z,4.90
2022-12-25T08:35:27.830Z,4.90
2022-12-25T08:38:14.389Z,5.00
2022-12-25T08:41:00.925Z,5.00
2022-12-25T08:43:47.497Z,5.00
2022-12-25T08:46:34.076Z,5.10
2022-12-25T08:49:20.637Z,5.10
2022-12-25T08:52:07.318Z,5.10
2022-12-25T08:54:53.990Z,5.10
2022-12-25T08:57:40.767Z,5.10
2022-12-25T09:00:27.266Z,5.00
2022-12-25T09:03:13.871Z,4.90
2022-12-25T09:06:00.427Z,4.90
2022-12-25T09:08:49.661Z,4.90
2022-12-25T09:11:36.452Z,4.90
2022-12-25T09:14:22.958Z,4.80
2022-12-25T09:17:09.618Z,4.80
2022-12-25T09:19:56.146Z,4.90
2022-12-25T09:22:42.726Z,4.90
2022-12-25T09:25:29.240Z,5.00
2022-12-25T09:28:15.803Z,5.10
2022-12-25T09:31:02.387Z,5.10
2022-12-25T09:33:49.068Z,5.20
2022-12-25T09:36:38.199Z,5.20
2022-12-25T09:39:24.776Z,5.20
2022-12-25T09:42:11.309Z,5.20
2022-12-25T09:44:57.885Z,5.20
2022-12-25T09:47:44.418Z,5.20
2022-12-25T09:50:30.978Z,5.20
2022-12-25T09:53:17.580Z,5.20
2022-12-25T09:56:04.193Z,5.20
2022-12-25T09:58:50.717Z,5.30
2022-12-25T10:01:37.355Z,5.30
2022-12-25T10:04:23.950Z,5.30
2022-12-25T10:07:10.474Z,5.40
2022-12-25T10:09:57.019Z,5.50
2022-12-25T10:12:43.561Z,5.50
2022-12-25T10:15:30.238Z,5.70
2022-12-25T10:18:16.809Z,5.80
2022-12-25T10:21:05.677Z,5.90
2022-12-25T10:23:56.023Z,5.90
2022-12-25T10:26:42.552Z,5.90
2022-12-25T10:29:29.108Z,5.90
2022-12-25T10:32:15.643Z,6.00
2022-12-25T10:35:02.195Z,6.00
2022-12-25T10:37:48.731Z,6.10
2022-12-25T10:40:35.303Z,6.10
2022-12-25T10:43:21.801Z,6.20
2022-12-25T10:46:09.357Z,6.30
2022-12-25T10:48:55.866Z,6.40
2022-12-25T10:51:42.427Z,6.50
2022-12-25T10:54:28.981Z,6.70
2022-12-25T10:57:15.534Z,6.80
2022-12-25T11:00:02.087Z,6.90
2022-12-25T11:02:48.766Z,7.00
2022-12-25T11:05:35.499Z,7.20
2022-12-25T11:08:23.035Z,7.30
2022-12-25T11:11:09.609Z,7.40
2022-12-25T11:13:56.094Z,7.50
2022-12-25T11:16:42.685Z,7.50
2022-12-25T11:19:29.273Z,7.60
2022-12-25T11:22:15.850Z,7.80
2022-12-25T11:25:02.395Z,7.90
2022-12-25T11:27:51.930Z,8.00
2022-12-25T11:30:40.129Z,8.10
2022-12-25T11:33:26.676Z,8.20
2022-12-25T11:36:13.170Z,8.30
2022-12-25T11:38:59.744Z,8.40
2022-12-25T11:41:46.284Z,8.50
2022-12-25T11:44:32.851Z,8.60
2022-12-25T11:47:19.711Z,8.80
2022-12-25T11:50:06.276Z,8.90
2022-12-25T11:52:52.887Z,9.00
2022-12-25T11:55:39.499Z,9.20
2022-12-25T11:58:26.035Z,9.20
2022-12-25T12:01:12.604Z,9.30
2022-12-25T12:03:59.177Z,9.40
2022-12-25T12:06:45.786Z,9.50
2022-12-25T12:09:32.351Z,9.50
2022-12-25T12:12:18.872Z,9.60
2022-12-25T12:15:05.461Z,9.60
2022-12-25T12:17:51.990Z,9.70
2022-12-25T12:20:38.539Z,9.70
2022-12-25T12:23:25.089Z,9.70
2022-12-25T12:26:11.673Z,9.80
2022-12-25T12:28:58.200Z,9.80
2022-12-25T12:31:44.864Z,9.90
2022-12-25T12:34:31.441Z,9.90
2022-12-25T12:37:24.502Z,10.00
2022-12-25T12:40:11.453Z,9.90
2022-12-25T12:42:57.968Z,9.90
2022-12-25T12:45:44.514Z,9.90
2022-12-25T12:48:31.087Z,10.00
2022-12-25T12:51:17.651Z,10.00
2022-12-25T12:54:04.203Z,10.10
2022-12-25T12:56:50.750Z,10.20
2022-12-25T12:59:37.280Z,10.10
2022-12-25T13:02:23.886Z,10.10
2022-12-25T13:05:10.457Z,10.10
2022-12-25T13:07:57.093Z,10.00
2022-12-25T13:10:43.743Z,9.90
2022-12-25T13:13:30.314Z,9.90
2022-12-25T13:16:16.905Z,9.70
2022-12-25T13:19:03.639Z,9.60
2022-12-25T13:21:50.162Z,9.40
2022-12-25T13:24:36.763Z,9.40
2022-12-25T13:27:23.359Z,9.30
2022-12-25T13:30:10.059Z,9.10
2022-12-25T13:32:56.659Z,9.10
2022-12-25T13:35:43.232Z,9.00
2022-12-25T13:38:29.713Z,8.90
2022-12-25T13:41:16.281Z,8.90
2022-12-25T13:44:02.903Z,8.80
2022-12-25T13:46:49.459Z,8.80
2022-12-25T13:49:36.014Z,8.70
2022-12-25T13:52:22.545Z,8.60
2022-12-25T13:55:09.208Z,8.50
2022-12-25T13:57:55.782Z,8.40
2022-12-25T14:00:42.307Z,8.20
2022-12-25T14:03:29.074Z,8.10
2022-12-25T14:06:15.720Z,8.00
2022-12-25T14:09:02.312Z,8.00
2022-12-25T14:11:48.865Z,7.90
2022-12-25T14:14:35.391Z,7.90
2022-12-25T14:17:21.933Z,7.90
2022-12-25T14:20:09.012Z,7.80
2022-12-25T14:22:55.579Z,7.80
2022-12-25T14:25:42.173Z,7.80
2022-12-25T14:28:28.922Z,7.80
2022-12-25T14:31:15.606Z,7.70
2022-12-25T14:34:02.155Z,7.70
2022-12-25T14:36:48.849Z,7.70
2022-12-25T14:39:35.415Z,7.60
2022-12-25T14:42:21.993Z,7.60
2022-12-25T14:45:08.544Z,7.60
2022-12-25T14:47:55.176Z,7.60
2022-12-25T14:50:41.707Z,7.60
2022-12-25T14:53:28.273Z,7.50
2022-12-25T14:56:14.838Z,7.40
2022-12-25T14:59:01.353Z,7.30
2022-12-25T15:01:48.027Z,7.20
2022-12-25T15:04:34.679Z,7.20
2022-12-25T15:07:21.275Z,7.00
2022-12-25T15:13:14.349Z,6.80
2022-12-25T15:16:00.941Z,6.50
2022-12-25T15:18:47.540Z,6.30
2022-12-25T15:21:34.220Z,6.20
2022-12-25T15:24:20.772Z,6.20
2022-12-25T15:27:07.341Z,6.10
2022-12-25T15:30:10.653Z,6.10
2022-12-25T15:32:57.731Z,5.90
2022-12-25T15:35:44.413Z,5.80
2022-12-25T15:38:31.083Z,5.80
2022-12-25T15:41:17.615Z,5.70
2022-12-25T15:44:04.184Z,5.70
2022-12-25T15:46:50.773Z,5.60
2022-12-25T15:49:42.445Z,5.40
2022-12-25T15:52:28.981Z,5.40
2022-12-25T15:55:15.512Z,5.30
2022-12-25T15:58:02.234Z,5.20
2022-12-25T16:00:48.775Z,5.10
2022-12-25T16:03:35.402Z,5.20
2022-12-25T16:06:21.947Z,5.10
2022-12-25T16:09:08.524Z,5.00
2022-12-25T16:11:55.080Z,5.00
2022-12-25T16:14:41.630Z,4.90
2022-12-25T16:17:28.171Z,4.90
2022-12-25T16:20:14.709Z,4.90
2022-12-25T16:23:01.261Z,4.70
2022-12-25T16:25:47.751Z,4.70
2022-12-25T16:28:34.327Z,4.70
2022-12-25T16:31:20.915Z,4.60
2022-12-25T16:34:07.517Z,4.50
2022-12-25T16:36:54.049Z,4.40
2022-12-25T16:39:41.645Z,4.30
2022-12-25T16:42:28.223Z,4.20
2022-12-25T16:45:14.753Z,4.10
2022-12-25T16:48:01.295Z,4.10
2022-12-25T16:50:47.781Z,4.10
2022-12-25T16:53:34.363Z,4.00
2022-12-25T16:56:20.888Z,3.90
2022-12-25T16:59:07.434Z,3.90
2022-12-25T17:01:54.058Z,3.90
2022-12-25T17:04:42.248Z,4.00
2022-12-25T17:07:28.806Z,3.90
2022-12-25T17:10:15.370Z,3.80
2022-12-25T17:13:01.935Z,3.70
2022-12-25T17:15:50.572Z,3.60
2022-12-25T17:18:37.527Z,3.50
2022-12-25T17:21:24.086Z,3.40
2022-12-25T17:24:10.670Z,3.40
2022-12-25T17:26:57.232Z,3.30
2022-12-25T17:29:43.794Z,3.20
2022-12-25T17:32:30.322Z,3.20
2022-12-25T17:35:16.890Z,3.20
2022-12-25T17:38:03.564Z,3.30
2022-12-25T17:40:50.107Z,3.20
2022-12-25T17:43:36.809Z,3.30
2022-12-25T17:46:23.339Z,3.30
2022-12-25T17:49:09.984Z,3.20
2022-12-25T17:51:56.546Z,3.10
2022-12-25T17:54:43.085Z,3.10
2022-12-25T17:57:37.152Z,3.10
2022-12-25T18:00:23.682Z,3.00
2022-12-25T18:03:11.934Z,2.90
2022-12-25T18:05:58.777Z,2.90
2022-12-25T18:08:45.330Z,2.80
2022-12-25T18:11:31.863Z,2.80
2022-12-25T18:14:18.423Z,2.80
2022-12-25T18:17:04.901Z,2.80
2022-12-25T18:19:51.584Z,2.70
2022-12-25T18:22:38.112Z,2.70
2022-12-25T18:25:24.731Z,2.60
2022-12-25T18:28:11.265Z,2.50
2022-12-25T18:30:57.806Z,2.50
2022-12-25T18:33:44.301Z,2.50
2022-12-25T18:36:30.859Z,2.50
2022-12-25T18:39:17.359Z,2.40
2022-12-25T18:42:04.021Z,2.50
2022-12-25T18:44:50.546Z,2.60
2022-12-25T18:47:37.099Z,2.60
2022-12-25T18:50:23.624Z,2.60
2022-12-25T18:53:10.170Z,2.60
2022-12-25T18:55:56.666Z,2.60
2022-12-25T18:58:43.210Z,2.60
2022-12-25T19:01:29.816Z,2.60
2022-12-25T19:04:16.468Z,2.50
2022-12-25T19:07:02.986Z,2.50
2022-12-25T19:09:49.580Z,2.50
2022-12-25T19:12:36.110Z,2.40
2022-12-25T19:15:22.681Z,2.40
2022-12-25T19:18:09.252Z,2.40
2022-12-25T19:20:55.910Z,2.30
2022-12-25T19:23:42.436Z,2.30
2022-12-25T19:26:28.981Z,2.30
2022-12-25T19:29:15.519Z,2.10
2022-12-25T19:32:02.180Z,2.00
2022-12-25T19:34:48.830Z,2.00
2022-12-25T19:37:35.537Z,2.00
2022-12-25T19:40:22.061Z,1.90
2022-12-25T19:43:08.645Z,1.80
2022-12-25T19:45:55.263Z,1.90
2022-12-25T19:48:41.921Z,1.90
2022-12-25T19:51:28.611Z,1.90
2022-12-25T19:54:15.175Z,1.90
2022-12-25T19:57:01.786Z,1.90
2022-12-25T19:59:48.601Z,1.90
2022-12-25T20:02:35.714Z,1.80
2022-12-25T20:05:22.348Z,1.80
2022-12-25T20:08:08.930Z,1.80
2022-12-25T20:10:55.591Z,1.70
2022-12-25T20:13:42.203Z,1.70
2022-12-25T20:16:28.945Z,1.70
2022-12-25T20:19:15.536Z,1.70
2022-12-25T20:22:02.104Z,1.70
2022-12-25T20:24:48.627Z,1.60
2022-12-25T20:27:35.172Z,1.60
2022-12-25T20:30:21.688Z,1.50
2022-12-25T20:33:08.197Z,1.30
2022-12-25T20:35:54.722Z,1.40
2022-12-25T20:38:41.418Z,1.40
2022-12-25T20:41:29.551Z,1.40
2022-12-25T20:44:16.564Z,1.40
2022-12-25T20:47:03.167Z,1.40
2022-12-25T20:49:49.728Z,1.40
2022-12-25T20:52:36.366Z,1.50
2022-12-25T20:55:25.214Z,1.50
2022-12-25T20:58:11.715Z,1.50
2022-12-25T21:00:59.344Z,1.50
2022-12-25T21:03:46.781Z,1.50
2022-12-25T21:06:33.675Z,1.40
2022-12-25T21:09:20.306Z,1.40
2022-12-25T21:12:07.053Z,1.40
2022-12-25T21:14:53.757Z,1.40
2022-12-25T21:17:40.331Z,1.40
2022-12-25T21:20:26.871Z,1.40
2022-12-25T21:23:13.467Z,1.30
2022-12-25T21:25:59.994Z,1.30
2022-12-25T21:28:46.558Z,1.30
2022-12-25T21:31:33.242Z,1.30
2022-12-25T21:34:19.778Z,1.20
2022-12-25T21:37:06.308Z,1.20
2022-12-25T21:39:52.987Z,1.20
2022-12-25T21:42:39.516Z,1.20
2022-12-25T21:45:26.176Z,1.10
2022-12-25T21:48:12.717Z,1.10
2022-12-25T21:50:59.300Z,1.10
2022-12-25T21:53:45.831Z,1.10
2022-12-25T21:56:32.452Z,1.10
2022-12-25T21:59:18.982Z,1.10
2022-12-25T22:02:05.723Z,1.00
2022-12-25T22:04:52.336Z,1.10
2022-12-25T22:07:38.877Z,1.10
2022-12-25T22:10:25.427Z,1.00
2022-12-25T22:13:11.945Z,1.10
2022-12-25T22:15:58.481Z,1.00
2022-12-25T22:18:45.041Z,1.00
2022-12-25T22:21:31.570Z,1.00
2022-12-25T22:24:18.126Z,1.00
2022-12-25T22:27:04.644Z,1.00
2022-12-25T22:29:51.182Z,1.00
2022-12-25T22:32:37.708Z,0.90
2022-12-25T22:35:24.252Z,0.90
2022-12-25T22:38:10.917Z,1.00
2022-12-25T22:40:57.486Z,1.00
2022-12-25T22:44:15.892Z,0.90
2022-12-25T22:46:50.541Z,1.00
2022-12-25T22:49:37.065Z,1.00
2022-12-25T22:52:23.715Z,1.00
2022-12-25T22:55:10.259Z,1.00
2022-12-25T22:57:56.825Z,1.00
2022-12-25T23:00:46.488Z,1.00
2022-12-25T23:03:33.383Z,1.00
2022-12-25T23:06:19.974Z,1.00
2022-12-25T23:09:06.526Z,1.00
2022-12-25T23:11:54.077Z,1.00
2022-12-25T23:14:40.649Z,1.00
2022-12-25T23:17:27.174Z,1.00
2022-12-25T23:20:13.727Z,0.90
2022-12-25T23:23:01.285Z,0.90
2022-12-25T23:25:47.834Z,0.90
2022-12-25T23:28:34.363Z,0.90
2022-12-25T23:31:20.978Z,0.90
2022-12-25T23:34:07.591Z,0.80
2022-12-25T23:36:54.198Z,0.80
2022-12-25T23:39:40.734Z,0.80
2022-12-25T23:42:27.271Z,0.80
2022-12-25T23:45:13.823Z,0.80
2022-12-25T23:48:00.387Z,0.80
2022-12-25T23:50:46.891Z,0.80
2022-12-25T23:53:33.463Z,0.80
2022-12-25T23:56:19.981Z,0.70
2022-12-25T23:59:06.528Z,0.80
